Time;durP1;ratioP1;P1;durP2;ratioP2;P2;SDS_P1;SDS_P2;PMS_P1;PMS_P2;Temp;Humidity;BMP_temperature;BMP_pressure;BME280_temperature;BME280_humidity;BME280_pressure;Samples;Min_cycle;Max_cycle;Signal;HPM_P1;HPM_P2
2022/06/12 00:01:10;;;;;;;5.93;3.95;;;;;;;20.31;62.12;100200.94;4414988;32;33727;-65
2022/06/12 00:03:38;;;;;;;5.05;3.30;;;;;;;20.40;61.82;100198.44;4413487;32;33943;-65
2022/06/12 00:06:07;;;;;;;5.20;3.60;;;;;;;20.34;61.21;100194.84;4411082;32;33943;-65
2022/06/12 00:08:38;;;;;;;7.03;3.70;;;;;;;20.53;60.92;100190.66;4396924;32;33096;-65
2022/06/12 00:11:15;;;;;;;6.97;3.53;;;;;;;20.56;61.89;100196.84;4410134;32;34800;-65
2022/06/12 00:13:57;;;;;;;5.25;3.45;;;;;;;21.05;59.07;100195.56;4401121;32;34607;-66
2022/06/12 00:16:28;;;;;;;6.37;3.55;;;;;;;20.04;63.38;100190.97;4398849;32;33921;-66
2022/06/12 00:18:56;;;;;;;5.47;4.15;;;;;;;20.44;62.85;100183.56;4420257;32;33664;-65
2022/06/12 00:21:25;;;;;;;9.90;4.32;;;;;;;20.06;64.05;100186.63;4409802;32;33865;-64
2022/06/12 00:23:57;;;;;;;6.72;4.05;;;;;;;21.12;59.72;100186.84;4412660;32;33694;-64
2022/06/12 00:26:37;;;;;;;6.50;4.03;;;;;;;20.40;62.89;100179.13;4407649;32;33602;-64
2022/06/12 00:29:12;;;;;;;5.70;4.00;;;;;;;19.62;66.09;100177.28;4411541;32;33498;-65
2022/06/12 00:31:43;;;;;;;8.23;4.28;;;;;;;19.58;66.28;100172.81;4396425;32;33777;-64
2022/06/12 00:34:13;;;;;;;5.82;3.78;;;;;;;19.42;67.04;100174.34;4409712;32;33760;-65
2022/06/12 00:36:41;;;;;;;7.95;4.35;;;;;;;20.44;63.04;100165.16;4413293;32;34001;-64
2022/06/12 00:39:08;;;;;;;7.25;4.32;;;;;;;20.21;64.79;100168.41;4412205;32;34080;-64
2022/06/12 00:41:38;;;;;;;7.75;4.53;;;;;;;19.90;64.82;100171.53;4415470;32;33812;-65
2022/06/12 00:44:06;;;;;;;7.05;4.57;;;;;;;19.23;67.85;100172.31;4411654;32;33949;-65
2022/06/12 00:46:46;;;;;;;6.35;4.50;;;;;;;19.09;68.00;100179.09;4415401;32;31564;-65
2022/06/12 00:49:18;;;;;;;7.35;4.57;;;;;;;19.02;68.55;100173.72;4419422;32;33516;-64
2022/06/12 00:51:50;;;;;;;9.40;4.50;;;;;;;18.90;68.98;100173.50;4405632;32;33741;-64
2022/06/12 00:54:18;;;;;;;7.37;4.50;;;;;;;19.10;67.29;100175.59;4419329;32;33762;-65
2022/06/12 00:56:49;;;;;;;7.40;4.35;;;;;;;19.62;64.05;100179.00;4415155;32;34668;-63
2022/06/12 00:59:28;;;;;;;7.43;4.90;;;;;;;19.42;63.66;100176.97;4403141;32;33414;-65
2022/06/12 01:01:56;;;;;;;6.72;4.35;;;;;;;19.47;63.54;100176.16;4404815;32;33311;-64
2022/06/12 01:07:15;;;;;;;6.43;4.03;;;;;;;20.12;61.64;100170.91;4408968;32;34059;-63
2022/06/12 01:09:45;;;;;;;7.18;4.37;;;;;;;20.45;58.50;100161.63;4404391;32;34313;-63
2022/06/12 01:12:19;;;;;;;7.75;4.18;;;;;;;20.73;57.51;100167.22;4391987;32;32369;-65
2022/06/12 01:14:50;;;;;;;7.12;4.20;;;;;;;20.20;59.64;100168.38;4391501;32;32588;-64
2022/06/12 01:17:20;;;;;;;6.68;3.97;;;;;;;19.62;61.87;100165.84;4403185;32;34649;-64
2022/06/12 01:19:51;;;;;;;6.85;3.87;;;;;;;20.03;61.32;100168.19;4418249;32;33326;-64
2022/06/12 01:22:37;;;;;;;5.87;3.60;;;;;;;20.89;57.86;100160.34;4418198;32;34674;-65
2022/06/12 01:25:13;;;;;;;7.80;4.10;;;;;;;20.03;60.22;100158.56;4418869;32;33965;-65
2022/06/12 01:28:03;;;;;;;5.40;3.87;;;;;;;20.19;60.55;100164.00;4414802;32;34130;-64
2022/06/12 01:30:33;;;;;;;5.55;3.65;;;;;;;20.98;58.18;100169.19;4410818;32;33383;-64
2022/06/12 01:33:07;;;;;;;7.75;3.42;;;;;;;21.42;56.00;100165.09;4403288;32;33096;-64
2022/06/12 01:35:47;;;;;;;9.07;3.53;;;;;;;21.19;56.53;100167.59;4411588;32;34346;-65
2022/06/12 01:38:34;;;;;;;8.13;3.70;;;;;;;21.26;55.84;100158.84;4404060;32;33789;-64
2022/06/12 01:41:23;;;;;;;6.15;3.22;;;;;;;20.32;58.11;100154.47;4398239;32;34657;-64
2022/06/12 01:43:55;;;;;;;8.30;3.50;;;;;;;20.06;58.86;100157.69;4412916;32;34675;-64
2022/06/12 01:46:25;;;;;;;7.28;3.40;;;;;;;19.47;60.80;100161.28;4418075;32;34011;-64
2022/06/12 01:49:16;;;;;;;4.72;3.30;;;;;;;19.70;60.09;100166.88;4414781;32;33162;-65
2022/06/12 01:52:03;;;;;;;5.43;3.42;;;;;;;19.29;60.96;100155.75;4409005;32;33970;-64
2022/06/12 01:54:49;;;;;;;6.68;3.35;;;;;;;20.53;57.52;100144.19;4417303;32;34422;-64
2022/06/12 01:57:25;;;;;;;6.22;3.08;;;;;;;20.47;57.12;100154.63;4408076;32;34677;-64
2022/06/12 01:59:56;;;;;;;7.47;3.25;;;;;;;19.27;60.20;100155.72;4399489;32;34548;-63
2022/06/12 02:02:29;;;;;;;4.85;3.03;;;;;;;19.50;59.76;100155.19;4413467;32;33194;-64
2022/06/12 02:05:22;;;;;;;7.85;3.45;;;;;;;20.18;57.25;100151.69;4403436;32;33917;-64
2022/06/12 02:07:54;;;;;;;6.07;3.00;;;;;;;20.79;56.11;100156.75;4417916;32;34568;-64
2022/06/12 02:10:27;;;;;;;6.80;3.35;;;;;;;20.23;57.20;100148.25;4410758;32;33623;-64
2022/06/12 02:13:11;;;;;;;6.55;3.15;;;;;;;20.42;56.94;100148.47;4400287;32;33542;-63
2022/06/12 02:15:53;;;;;;;5.53;2.90;;;;;;;20.89;55.79;100150.69;4405651;32;34612;-64
2022/06/12 02:18:31;;;;;;;4.80;3.12;;;;;;;21.22;54.76;100157.06;4414157;32;33910;-64
2022/06/12 02:21:21;;;;;;;6.10;3.30;;;;;;;19.95;57.66;100151.41;4407841;32;34080;-65
2022/06/12 02:23:54;;;;;;;6.57;3.42;;;;;;;19.55;59.27;100159.66;4416768;32;33790;-63
2022/06/12 02:26:27;;;;;;;5.25;3.08;;;;;;;19.47;60.27;100160.38;4416183;32;33495;-64
2022/06/12 02:28:59;;;;;;;5.05;3.28;;;;;;;19.76;58.61;100150.31;4397172;32;33916;-63
2022/06/12 02:31:34;;;;;;;5.55;3.12;;;;;;;20.74;56.15;100161.06;4401616;32;34274;-65
2022/06/12 02:34:06;;;;;;;6.18;4.03;;;;;;;20.64;56.63;100156.59;4407958;32;33855;-63
2022/06/12 02:36:38;;;;;;;5.07;3.20;;;;;;;21.59;53.94;100162.59;4400377;32;33911;-64
2022/06/12 02:39:20;;;;;;;6.20;3.05;;;;;;;21.29;54.87;100158.00;4410775;32;33890;-64
2022/06/12 02:41:52;;;;;;;5.57;3.20;;;;;;;20.78;57.02;100160.22;4386025;32;33242;-64
2022/06/12 02:44:52;;;;;;;5.28;3.20;;;;;;;20.86;57.25;100158.56;4400255;32;33518;-65
2022/06/12 02:47:23;;;;;;;4.75;3.25;;;;;;;20.62;58.13;100152.19;4402354;32;34568;-64
2022/06/12 02:49:51;;;;;;;6.95;3.65;;;;;;;20.43;58.92;100150.22;4402734;32;34763;-64
2022/06/12 02:52:28;;;;;;;6.53;3.22;;;;;;;19.91;61.03;100157.50;4397179;32;34543;-64
2022/06/12 02:55:08;;;;;;;4.80;3.10;;;;;;;19.09;63.96;100164.22;4401306;32;34096;-64
2022/06/12 02:57:49;;;;;;;6.68;3.22;;;;;;;19.68;61.46;100171.19;4408729;32;34785;-63
2022/06/12 03:00:31;;;;;;;4.60;3.40;;;;;;;18.89;64.52;100163.91;4413876;32;34542;-65
2022/06/12 03:03:36;;;;;;;6.53;2.83;;;;;;;19.10;63.47;100165.09;4404937;32;32460;-64
2022/06/12 03:06:04;;;;;;;4.97;3.12;;;;;;;18.87;63.93;100162.94;4413816;32;33358;-64
2022/06/12 03:08:36;;;;;;;6.85;3.30;;;;;;;19.17;63.21;100173.09;4413845;32;33953;-64
2022/06/12 03:11:21;;;;;;;6.75;3.45;;;;;;;19.90;60.69;100163.66;4394982;32;33931;-65
2022/06/12 03:13:51;;;;;;;7.53;3.53;;;;;;;20.11;60.01;100166.53;4418835;32;34181;-64
2022/06/12 03:16:25;;;;;;;6.82;3.30;;;;;;;18.62;65.37;100173.00;4412794;32;33652;-64
2022/06/12 03:18:56;;;;;;;;;;;;;;;19.68;62.45;100175.56;4419018;32;34755;-65
2022/06/12 03:21:33;;;;;;;8.20;3.12;;;;;;;18.55;66.33;100173.75;4419147;32;34043;-64
2022/06/12 03:24:16;;;;;;;4.80;3.25;;;;;;;19.03;64.80;100177.25;4411390;32;34845;-65
2022/06/12 03:26:57;;;;;;;5.00;3.30;;;;;;;18.99;63.91;100178.06;4417081;32;33375;-63
2022/06/12 03:29:48;;;;;;;7.87;3.62;;;;;;;18.50;65.90;100178.00;4413422;32;34012;-64
2022/06/12 03:32:25;;;;;;;5.18;3.25;;;;;;;19.64;62.09;100183.44;4401145;32;34630;-64
2022/06/12 03:35:21;;;;;;;4.65;3.10;;;;;;;19.00;63.21;100174.56;4404841;32;34671;-65
2022/06/12 03:37:57;;;;;;;9.02;3.37;;;;;;;19.60;61.38;100181.59;4419894;32;33521;-64
2022/06/12 03:40:24;;;;;;;6.37;3.37;;;;;;;20.01;60.43;100190.94;4408182;32;33969;-64
2022/06/12 03:43:05;;;;;;;4.85;2.75;;;;;;;19.49;62.09;100184.94;4411535;32;33918;-64
2022/06/12 03:45:44;;;;;;;6.87;3.45;;;;;;;20.16;58.90;100180.59;4401265;32;34048;-64
2022/06/12 03:48:26;;;;;;;5.15;3.03;;;;;;;19.90;60.62;100184.69;4413179;32;33486;-65
2022/06/12 03:51:17;;;;;;;4.55;3.05;;;;;;;19.48;61.50;100188.44;4401253;32;33704;-64
2022/06/12 03:54:02;;;;;;;5.45;2.70;;;;;;;20.37;59.12;100184.34;4399750;32;34508;-64
2022/06/12 03:59:35;;;;;;;5.15;3.47;;;;;;;18.38;65.92;100188.28;4405146;32;33002;-64
2022/06/12 04:02:06;;;;;;;5.45;3.15;;;;;;;19.71;61.56;100194.91;4413885;32;34638;-64
2022/06/12 04:04:34;;;;;;;7.25;3.50;;;;;;;20.26;58.92;100188.59;4413925;32;33160;-64
2022/06/12 04:07:05;;;;;;;6.15;3.40;;;;;;;20.26;58.59;100196.50;4403455;32;34176;-64
2022/06/12 04:09:35;;;;;;;5.25;3.22;;;;;;;19.97;59.68;100195.28;4410779;32;32794;-64
2022/06/12 04:12:07;;;;;;;5.28;3.25;;;;;;;20.49;58.14;100195.00;4385869;32;33181;-64
2022/06/12 04:14:39;;;;;;;6.60;3.33;;;;;;;20.46;57.75;100192.34;4399383;32;34020;-65
2022/06/12 04:17:07;;;;;;;6.47;3.40;;;;;;;20.10;58.80;100190.19;4404209;32;32481;-64
2022/06/12 04:22:27;;;;;;;4.90;3.20;;;;;;;18.89;64.17;100191.84;4410850;32;33920;-64
2022/06/12 04:25:00;;;;;;;6.47;3.67;;;;;;;18.88;64.02;100196.22;4409183;32;33913;-63
2022/06/12 04:27:37;;;;;;;6.90;3.37;;;;;;;18.89;63.82;100198.00;4407675;32;33736;-65
2022/06/12 04:30:19;;;;;;;5.65;3.55;;;;;;;18.51;63.79;100210.41;4403790;32;31737;-64
2022/06/12 04:32:47;;;;;;;5.05;3.30;;;;;;;19.62;61.33;100202.66;4407199;32;34672;-63
2022/06/12 04:35:17;;;;;;;5.57;3.30;;;;;;;19.47;61.65;100203.31;4418493;32;34615;-63
2022/06/12 04:37:44;;;;;;;5.15;2.83;;;;;;;19.99;58.82;100200.56;4413081;32;34662;-64
2022/06/12 04:40:26;;;;;;;4.60;2.87;;;;;;;19.86;59.30;100201.25;4419149;32;33183;-63
2022/06/12 04:42:54;;;;;;;7.43;3.12;;;;;;;20.02;59.78;100204.09;4416156;32;33656;-63
2022/06/12 04:45:22;;;;;;;5.90;2.90;;;;;;;20.30;57.98;100203.56;4418293;32;34144;-63
2022/06/12 04:47:49;;;;;;;5.95;3.40;;;;;;;20.44;57.53;100199.34;4421230;32;32428;-64
2022/06/12 04:50:17;;;;;;;5.82;2.78;;;;;;;20.62;57.57;100201.31;4413460;32;34151;-66
2022/06/12 04:52:45;;;;;;;5.72;2.90;;;;;;;20.83;56.74;100205.03;4419663;32;34177;-65
2022/06/12 04:55:12;;;;;;;6.80;3.05;;;;;;;20.81;56.97;100207.66;4397394;32;33826;-64
2022/06/12 04:57:40;;;;;;;5.40;3.20;;;;;;;20.57;58.24;100208.25;4400184;32;33049;-63
2022/06/12 05:00:08;;;;;;;4.37;2.90;;;;;;;19.90;59.73;100208.34;4413007;32;34302;-65
2022/06/12 05:02:35;;;;;;;4.37;2.78;;;;;;;20.88;56.28;100201.59;4405685;32;33983;-64
2022/06/12 05:05:03;;;;;;;4.47;3.00;;;;;;;21.08;56.39;100207.03;4420357;32;33954;-64
2022/06/12 05:07:31;;;;;;;7.30;3.08;;;;;;;21.26;55.21;100208.91;4424344;32;34448;-63
2022/06/12 05:09:58;;;;;;;4.25;2.75;;;;;;;20.85;56.40;100209.44;4419569;32;33261;-64
2022/06/12 05:12:26;;;;;;;4.07;2.80;;;;;;;20.93;56.33;100207.75;4417240;32;33914;-64
2022/06/12 05:14:54;;;;;;;4.95;2.90;;;;;;;20.82;57.42;100204.13;4417544;32;34675;-64
2022/06/12 05:17:22;;;;;;;5.70;2.83;;;;;;;21.13;56.71;100204.41;4403237;32;34657;-64
2022/06/12 05:19:50;;;;;;;5.80;2.65;;;;;;;21.41;55.85;100203.75;4416053;32;33342;-64
2022/06/12 05:22:22;;;;;;;7.12;2.90;;;;;;;21.57;55.62;100206.53;4415621;32;34729;-64
2022/06/12 05:24:49;;;;;;;5.28;3.00;;;;;;;21.16;55.53;100209.72;4420065;32;33525;-64
2022/06/12 05:27:20;;;;;;;6.28;3.05;;;;;;;21.27;56.01;100205.41;4410839;32;33987;-64
2022/06/12 05:29:49;;;;;;;5.35;2.80;;;;;;;20.64;57.69;100215.38;4418586;32;32865;-64
2022/06/12 05:32:18;;;;;;;5.70;2.97;;;;;;;21.10;56.13;100225.47;4403278;32;33951;-64
2022/06/12 05:34:46;;;;;;;4.40;2.92;;;;;;;21.45;55.19;100228.41;4414776;32;34533;-64
2022/06/12 05:37:14;;;;;;;5.62;3.10;;;;;;;20.43;58.16;100227.37;4412416;32;34006;-64
2022/06/12 05:39:42;;;;;;;4.85;2.80;;;;;;;20.10;59.39;100227.00;4414041;32;33641;-64
2022/06/12 05:42:09;;;;;;;6.40;3.22;;;;;;;19.92;60.02;100227.66;4419706;32;34035;-64
2022/06/12 05:44:38;;;;;;;6.03;3.00;;;;;;;20.07;60.06;100227.84;4422221;32;33911;-64
2022/06/12 05:47:07;;;;;;;6.22;2.95;;;;;;;20.33;59.32;100229.91;4420395;32;34170;-64
2022/06/12 05:49:34;;;;;;;4.87;2.78;;;;;;;20.23;59.68;100229.78;4414468;32;33495;-64
2022/06/12 05:52:02;;;;;;;5.68;2.90;;;;;;;20.88;59.02;100220.03;4416676;32;33793;-64
2022/06/12 05:54:30;;;;;;;5.20;3.05;;;;;;;20.70;57.93;100235.62;4411194;32;33970;-64
2022/06/12 05:56:57;;;;;;;8.02;3.08;;;;;;;20.79;57.66;100231.31;4410656;32;33616;-64
2022/06/12 05:59:25;;;;;;;5.55;2.50;;;;;;;20.55;58.03;100231.94;4411511;32;33323;-64
2022/06/12 06:01:52;;;;;;;7.80;3.15;;;;;;;20.85;57.03;100229.63;4415640;32;34670;-64
2022/06/12 06:04:20;;;;;;;7.18;2.90;;;;;;;21.01;57.09;100237.69;4417193;32;33538;-64
2022/06/12 06:06:51;;;;;;;5.62;2.80;;;;;;;20.73;56.55;100238.28;4388081;32;33283;-64
2022/06/12 06:09:20;;;;;;;6.45;3.17;;;;;;;21.55;55.63;100239.91;4421685;32;33424;-64
2022/06/12 06:11:48;;;;;;;5.40;3.03;;;;;;;21.09;56.36;100237.75;4416320;32;34797;-65
2022/06/12 06:14:15;;;;;;;5.97;3.10;;;;;;;21.83;55.21;100240.06;4419422;32;34538;-65
2022/06/12 06:16:44;;;;;;;4.97;2.70;;;;;;;21.55;53.69;100239.91;4410594;32;34476;-66
2022/06/12 06:19:13;;;;;;;5.97;3.10;;;;;;;21.95;52.47;100245.44;4416465;32;33441;-64
2022/06/12 06:21:41;;;;;;;4.50;2.47;;;;;;;21.54;53.09;100244.31;4416844;32;34438;-65
2022/06/12 06:24:10;;;;;;;7.57;2.92;;;;;;;22.46;51.08;100238.62;4418705;32;33743;-64
2022/06/12 06:26:38;;;;;;;5.30;3.30;;;;;;;21.66;54.28;100243.50;4416830;32;33723;-65
2022/06/12 06:29:06;;;;;;;4.30;2.80;;;;;;;21.86;53.13;100245.38;4412002;32;33449;-65
2022/06/12 06:31:34;;;;;;;4.15;2.40;;;;;;;21.69;53.09;100238.25;4412649;32;34188;-65
2022/06/12 06:34:02;;;;;;;5.87;2.85;;;;;;;22.27;51.51;100236.81;4388928;32;34057;-65
2022/06/12 06:36:30;;;;;;;5.30;2.58;;;;;;;22.02;51.30;100247.25;4411211;32;32259;-65
2022/06/12 06:38:58;;;;;;;6.85;2.90;;;;;;;21.74;52.07;100236.50;4414216;32;33254;-63
2022/06/12 06:41:26;;;;;;;5.00;2.85;;;;;;;22.05;50.89;100241.97;4416417;32;34457;-65
2022/06/12 06:46:41;;;;;;;5.72;2.70;;;;;;;23.28;49.03;100221.19;4410371;32;34348;-65
2022/06/12 06:49:09;;;;;;;5.62;3.37;;;;;;;22.57;48.14;100239.56;4410533;32;33906;-65
2022/06/12 06:51:36;;;;;;;7.75;4.60;;;;;;;23.10;48.55;100237.03;4412994;32;33609;-64
2022/06/12 06:54:04;;;;;;;6.15;3.03;;;;;;;23.61;49.23;100235.25;4415314;32;34694;-65
2022/06/12 06:56:32;;;;;;;5.47;3.10;;;;;;;22.37;48.80;100231.59;4418509;32;33959;-65
2022/06/12 06:59:00;;;;;;;4.93;2.85;;;;;;;22.89;47.77;100238.75;4413188;32;33432;-64
2022/06/12 07:01:27;;;;;;;5.37;2.80;;;;;;;22.43;48.76;100233.37;4413550;32;34865;-65
2022/06/12 07:03:55;;;;;;;4.00;2.70;;;;;;;23.10;47.71;100226.47;4410613;32;33933;-65
2022/06/12 07:06:23;;;;;;;13.57;3.08;;;;;;;23.85;46.39;100236.13;4413445;32;34079;-66
2022/06/12 07:08:54;;;;;;;7.57;3.12;;;;;;;24.27;44.53;100228.91;4411591;32;33087;-65
2022/06/12 07:11:23;;;;;;;4.85;2.83;;;;;;;24.25;45.95;100233.34;4415185;32;34307;-65
2022/06/12 07:13:53;;;;;;;6.00;2.92;;;;;;;24.32;44.78;100241.25;4412269;32;34555;-67
2022/06/12 07:16:22;;;;;;;7.75;3.05;;;;;;;24.55;43.79;100236.75;4417848;32;34149;-65
2022/06/12 07:18:50;;;;;;;6.93;3.22;;;;;;;24.14;44.83;100231.62;4411640;32;33477;-65
2022/06/12 07:21:18;;;;;;;6.62;2.72;;;;;;;23.59;48.00;100242.31;4416292;32;34758;-65
2022/06/12 07:23:46;;;;;;;6.47;3.10;;;;;;;24.47;44.18;100223.50;4417347;32;34028;-65
2022/06/12 07:26:18;;;;;;;4.00;2.65;;;;;;;24.27;44.89;100231.56;4411922;32;34636;-65
2022/06/12 07:28:47;;;;;;;4.20;2.67;;;;;;;24.36;45.64;100231.53;4400478;32;33642;-65
2022/06/12 07:31:15;;;;;;;5.20;2.55;;;;;;;23.83;46.28;100229.94;4417305;32;34150;-65
2022/06/12 07:33:42;;;;;;;4.22;2.55;;;;;;;24.12;45.03;100225.44;4409628;32;34602;-65
2022/06/12 07:36:11;;;;;;;3.92;2.35;;;;;;;24.85;43.89;100220.66;4416056;32;33689;-65
2022/06/12 07:38:39;;;;;;;3.58;2.42;;;;;;;23.59;45.90;100221.16;4394926;32;33623;-65
2022/06/12 07:41:27;;;;;;;4.15;2.40;;;;;;;23.95;46.45;100224.63;4399398;32;34807;-65
2022/06/12 07:43:54;;;;;;;6.20;2.75;;;;;;;24.24;45.28;100220.97;4411124;32;33922;-65
2022/06/12 07:46:22;;;;;;;4.30;2.60;;;;;;;24.53;45.81;100219.13;4397731;32;33532;-66
2022/06/12 07:48:56;;;;;;;;;;;;;;;24.95;44.11;100220.59;4414178;32;32009;-65
2022/06/12 07:51:24;;;;;;;4.32;2.78;;;;;;;24.03;45.57;100217.56;4418488;32;33752;-65
2022/06/12 07:53:52;;;;;;;5.90;2.67;;;;;;;23.96;46.28;100217.59;4413034;32;34463;-65
2022/06/12 07:56:22;;;;;;;5.07;2.53;;;;;;;24.11;45.35;100221.03;4414174;32;33631;-65
2022/06/12 07:58:49;;;;;;;5.22;2.50;;;;;;;24.95;44.56;100220.59;4408320;32;33370;-65
2022/06/12 08:01:19;;;;;;;6.05;2.60;;;;;;;24.65;43.47;100218.16;4413019;32;34805;-65
2022/06/12 08:03:48;;;;;;;5.80;2.70;;;;;;;24.00;44.21;100217.56;4414434;32;32949;-65
2022/06/12 08:06:16;;;;;;;7.93;2.75;;;;;;;24.33;45.24;100227.13;4414697;32;33685;-65
2022/06/12 08:08:44;;;;;;;4.93;2.70;;;;;;;25.40;42.90;100222.03;4410566;32;33294;-65
2022/06/12 08:11:13;;;;;;;5.85;2.75;;;;;;;24.52;44.75;100217.34;4410458;32;33772;-65
2022/06/12 08:13:40;;;;;;;4.68;2.92;;;;;;;24.50;45.36;100213.78;4412233;32;34769;-65
2022/06/12 08:16:08;;;;;;;5.20;2.67;;;;;;;25.37;43.62;100218.53;4400407;32;33807;-66
2022/06/12 08:18:36;;;;;;;4.10;2.62;;;;;;;25.85;43.14;100216.28;4409416;32;33545;-65
2022/06/12 08:21:09;;;;;;;4.75;2.72;;;;;;;26.04;42.41;100212.53;4407923;32;33987;-65
2022/06/12 08:23:43;;;;;;;4.25;2.80;;;;;;;25.29;42.77;100210.66;4397416;32;33988;-65
2022/06/12 08:26:18;;;;;;;4.62;2.65;;;;;;;25.02;43.75;100211.72;4413812;32;33717;-65
2022/06/12 08:28:56;;;;;;;3.85;2.37;;;;;;;25.66;43.38;100211.16;4412359;32;33382;-65
2022/06/12 08:31:30;;;;;;;4.47;2.78;;;;;;;25.91;43.11;100202.97;4416342;32;34259;-64
2022/06/12 08:34:01;;;;;;;4.93;2.72;;;;;;;25.65;41.82;100209.41;4396922;32;34520;-65
2022/06/12 08:36:29;;;;;;;5.07;2.83;;;;;;;25.45;44.16;100206.06;4398892;32;34025;-65
2022/06/12 08:38:57;;;;;;;4.30;2.72;;;;;;;24.68;45.29;100207.53;4400141;32;33418;-65
2022/06/12 08:41:57;;;;;;;5.53;2.80;;;;;;;25.46;43.96;100207.84;4397722;32;33739;-65
2022/06/12 08:44:43;;;;;;;3.83;2.53;;;;;;;25.75;42.42;100206.63;4395265;32;33938;-66
2022/06/12 08:47:32;;;;;;;5.22;2.62;;;;;;;26.11;42.33;100202.72;4410254;32;34599;-65
2022/06/12 08:50:07;;;;;;;4.37;2.60;;;;;;;26.21;42.28;100204.38;4411020;32;33352;-65
2022/06/12 08:53:03;;;;;;;6.10;2.90;;;;;;;26.70;42.22;100207.28;4414212;32;34000;-65
2022/06/12 08:55:58;;;;;;;5.15;2.95;;;;;;;25.72;42.49;100210.22;4409494;32;33632;-65
2022/06/12 08:58:39;;;;;;;4.65;2.85;;;;;;;25.72;43.75;100214.66;4402666;32;33813;-65
2022/06/12 09:01:07;;;;;;;4.07;2.80;;;;;;;25.58;42.22;100210.37;4398152;32;31749;-65
2022/06/12 09:03:40;;;;;;;4.07;2.37;;;;;;;26.61;42.14;100205.63;4408489;32;34279;-65
2022/06/12 09:06:34;;;;;;;5.80;3.05;;;;;;;25.78;41.10;100214.56;4410092;32;34093;-65
2022/06/12 09:09:39;;;;;;;3.83;2.60;;;;;;;26.17;43.19;100201.75;4383840;32;34782;-65
2022/06/12 09:12:13;;;;;;;4.55;2.97;;;;;;;25.73;42.13;100211.09;4390191;32;33451;-65
2022/06/12 09:14:53;;;;;;;4.13;2.70;;;;;;;27.05;40.59;100204.06;4406038;32;33294;-65
2022/06/12 09:17:29;;;;;;;7.57;2.67;;;;;;;27.84;37.97;100190.25;4414964;32;33831;-65
2022/06/12 09:20:11;;;;;;;4.25;2.70;;;;;;;26.55;40.01;100200.38;4400919;32;33737;-65
2022/06/12 09:22:50;;;;;;;3.70;2.40;;;;;;;26.79;41.43;100199.13;4416662;32;33331;-64
2022/06/12 09:25:20;;;;;;;5.25;3.25;;;;;;;26.40;39.69;100199.66;4419806;32;32586;-65
2022/06/12 09:27:55;;;;;;;5.10;2.90;;;;;;;26.52;39.37;100197.75;4408816;32;33789;-65
2022/06/12 09:30:49;;;;;;;4.35;2.78;;;;;;;27.74;38.68;100196.63;4400767;32;34010;-64
2022/06/12 09:33:49;;;;;;;7.63;4.87;;;;;;;27.24;40.74;100196.66;4414826;32;34294;-65
2022/06/12 09:36:47;;;;;;;5.70;3.22;;;;;;;27.38;41.22;100197.31;4398594;32;34006;-65
2022/06/12 09:39:46;;;;;;;11.57;9.30;;;;;;;27.54;38.93;100192.56;4396873;32;33825;-64
2022/06/12 09:42:25;;;;;;;5.57;3.40;;;;;;;27.04;41.02;100189.87;4402237;32;33931;-65
2022/06/12 09:45:01;;;;;;;5.18;3.00;;;;;;;28.14;36.41;100183.41;4417990;32;33446;-65
2022/06/12 09:47:44;;;;;;;4.20;2.53;;;;;;;28.47;37.04;100180.03;4399803;32;34540;-66
2022/06/12 09:50:27;;;;;;;5.07;3.22;;;;;;;28.71;37.09;100179.50;4414100;32;34035;-66
2022/06/12 09:53:17;;;;;;;7.43;5.97;;;;;;;28.25;39.43;100169.88;4419580;32;33609;-66
2022/06/12 09:55:52;;;;;;;4.35;2.67;;;;;;;28.19;37.44;100167.34;4411904;32;33212;-65
2022/06/12 09:58:29;;;;;;;10.88;5.40;;;;;;;27.50;40.23;100174.91;4397247;32;34032;-65
2022/06/12 10:01:10;;;;;;;12.32;9.50;;;;;;;27.00;39.32;100174.00;4414287;32;34738;-65
2022/06/12 10:03:43;;;;;;;5.03;2.72;;;;;;;27.11;39.45;100160.53;4413124;32;34045;-65
2022/06/12 10:06:23;;;;;;;5.00;2.70;;;;;;;28.26;38.73;100160.09;4396987;32;34265;-65
2022/06/12 10:08:51;;;;;;;6.10;4.22;;;;;;;28.72;37.40;100154.59;4413184;32;34087;-65
2022/06/12 10:11:25;;;;;;;6.97;3.47;;;;;;;27.77;38.11;100161.97;4411626;32;34573;-65
2022/06/12 10:13:58;;;;;;;4.15;2.67;;;;;;;27.82;38.22;100149.47;4414503;32;33933;-65
2022/06/12 10:16:33;;;;;;;3.83;2.87;;;;;;;28.82;37.87;100158.81;4402849;32;34174;-65
2022/06/12 10:19:24;;;;;;;;;;;;;;;29.37;35.29;100150.31;4413055;32;33678;-65
2022/06/12 10:21:54;;;;;;;5.07;2.85;;;;;;;28.73;37.21;100150.16;4399526;32;34159;-65
2022/06/12 10:24:22;;;;;;;4.78;3.17;;;;;;;28.73;36.42;100148.34;4419526;32;33907;-65
2022/06/12 10:27:05;;;;;;;4.97;3.00;;;;;;;28.06;37.66;100141.91;4412502;32;33211;-65
2022/06/12 10:29:56;;;;;;;5.47;3.00;;;;;;;28.26;36.82;100142.34;4414950;32;33952;-65
2022/06/12 10:32:27;;;;;;;5.55;3.00;;;;;;;28.21;37.76;100141.56;4413291;32;33760;-65
2022/06/12 10:35:14;;;;;;;4.45;3.17;;;;;;;29.10;36.90;100138.56;4417154;32;33959;-65
2022/06/12 10:37:42;;;;;;;7.20;4.62;;;;;;;28.89;36.35;100139.97;4414240;32;33246;-65
2022/06/12 10:40:21;;;;;;;6.03;3.28;;;;;;;27.83;37.72;100135.22;4416172;32;35224;-65
2022/06/12 10:42:52;;;;;;;6.80;3.90;;;;;;;29.25;36.45;100132.84;4416900;32;34680;-65
2022/06/12 10:45:29;;;;;;;7.22;2.80;;;;;;;28.16;37.32;100130.12;4415605;32;33680;-64
2022/06/12 10:48:03;;;;;;;5.53;2.53;;;;;;;29.27;36.44;100140.81;4394482;32;32236;-65
2022/06/12 10:50:31;;;;;;;;;;;;;;;29.62;35.41;100133.62;4414086;32;34576;-65
2022/06/12 10:53:07;;;;;;;3.67;2.40;;;;;;;29.47;35.26;100133.13;4417946;32;35097;-65
2022/06/12 10:55:51;;;;;;;5.57;2.83;;;;;;;29.26;35.13;100131.06;4402068;32;34071;-65
2022/06/12 10:58:43;;;;;;;7.60;5.07;;;;;;;28.39;36.97;100129.59;4412425;32;33546;-65
2022/06/12 11:01:16;;;;;;;5.65;3.80;;;;;;;28.31;38.10;100121.78;4409252;32;33766;-65
2022/06/12 11:04:01;;;;;;;12.48;9.32;;;;;;;27.97;37.47;100121.66;4415151;32;34765;-65
2022/06/12 11:06:37;;;;;;;6.30;3.50;;;;;;;27.91;38.35;100117.38;4413476;32;34083;-65
2022/06/12 11:09:13;;;;;;;5.00;2.80;;;;;;;29.31;36.00;100118.47;4405984;32;33674;-66
2022/06/12 11:12:10;;;;;;;5.28;2.65;;;;;;;28.61;36.51;100124.69;4402004;32;33600;-65
2022/06/12 11:14:43;;;;;;;9.85;7.28;;;;;;;28.72;35.85;100119.94;4389386;32;33741;-65
2022/06/12 11:17:41;;;;;;;6.78;5.07;;;;;;;28.50;36.73;100116.03;4397138;32;34614;-65
2022/06/12 11:20:13;;;;;;;5.60;2.97;;;;;;;27.77;38.20;100114.94;4405179;32;34117;-66
2022/06/12 11:23:15;;;;;;;10.65;8.75;;;;;;;29.52;35.46;100111.66;4417747;32;33765;-66
2022/06/12 11:26:05;;;;;;;4.80;2.40;;;;;;;28.89;36.14;100118.66;4399915;32;33884;-65
2022/06/12 11:28:55;;;;;;;5.37;2.92;;;;;;;28.19;36.93;100111.41;4401540;32;32216;-64
2022/06/12 11:31:41;;;;;;;4.00;2.87;;;;;;;28.51;37.12;100107.09;4415517;32;34267;-64
2022/06/12 11:34:30;;;;;;;6.43;3.95;;;;;;;29.47;36.64;100117.12;4392975;32;33517;-65
2022/06/12 11:37:09;;;;;;;5.75;4.32;;;;;;;28.50;37.27;100102.72;4408804;32;33941;-65
2022/06/12 11:39:43;;;;;;;5.03;3.03;;;;;;;28.65;36.68;100109.47;4411465;32;34387;-65
2022/06/12 11:42:23;;;;;;;5.28;4.30;;;;;;;28.21;36.56;100101.59;4385757;32;33473;-65
2022/06/12 11:45:03;;;;;;;4.68;2.97;;;;;;;28.70;37.45;100108.44;4409464;32;34666;-65
2022/06/12 11:47:39;;;;;;;7.50;2.90;;;;;;;29.44;36.15;100105.66;4412669;32;34031;-65
2022/06/12 11:50:33;;;;;;;4.18;3.20;;;;;;;28.36;36.86;100103.91;4411908;32;34079;-65
2022/06/12 11:53:06;;;;;;;6.12;2.80;;;;;;;28.80;36.40;100104.66;4415390;32;34336;-66
2022/06/12 11:55:39;;;;;;;6.03;2.83;;;;;;;29.65;35.69;100093.47;4408618;32;34586;-65
2022/06/12 11:58:16;;;;;;;3.50;2.78;;;;;;;28.52;36.24;100098.25;4409462;32;34053;-65
2022/06/12 12:01:06;;;;;;;4.47;2.78;;;;;;;29.06;36.64;100100.41;4408777;32;33579;-64
2022/06/12 12:04:12;;;;;;;7.57;3.03;;;;;;;29.20;37.16;100100.94;4411107;32;33330;-65
2022/06/12 12:06:55;;;;;;;18.73;16.67;;;;;;;29.60;35.37;100091.81;4398544;32;33926;-65
2022/06/12 12:09:50;;;;;;;5.53;3.00;;;;;;;29.90;34.62;100083.88;4398528;32;34006;-65
2022/06/12 12:12:21;;;;;;;8.85;5.82;;;;;;;30.48;34.16;100080.28;4414777;32;33926;-65
2022/06/12 12:14:49;;;;;;;4.40;3.15;;;;;;;29.73;35.49;100073.69;4398805;32;34048;-65